Etusivu
METAR-TAF:

METAR-TAF

Lentoasemat :

Nënë Terezan kansainvälinen lentoasema

Tirana, Albania

Leveyspiiri: 41-20N, Pituuspiiri: 019-47E, korkeus merenpinnasta: 89 m

Tämänhetkinen sää

Tämä raportti tehtiin 38 minuuttia sitten, kello 10.20 UTC
Tuuli 9 kn etelästä, vaihdellen etelän/kaakon ja lounaan välillä
Lämpötila 22°C
Kosteus 35%
Ilmanpaine 1014 hPa
Näkyvyys 10 km tai enemmän
ei pilviä alle 1500 m:ssä eikä cumulonimbus-pilviä

METAR: LATI 271020Z 17009KT 150V220 CAVOK 22/06 Q1014 NOSIG

Aika: 11:58 (10:58 UTC)

Sääennuste

Tämä raportti tehtiin 5 tuntia ja 58 minuuttia sitten, kello 05.00 UTC
Ennuste voimassa 27. päivästä klo 06 UTC - 28. päivään klo 06 UTC
Tuuli 5 kn etelästä/kaakosta
Näkyvyys 10 km tai enemmän
ei pilviä alle 1500 m:ssä eikä cumulonimbus-pilviä
Ajoittain
27. päivästä klo 10 UTC - 27. päivään klo 18 UTC
Tuuli 12 kn lounaasta

TAF: LATI 270500Z 2706/2806 16005KT CAVOK TX24/2712Z TN08/2805Z TEMPO 2710/2718 22012KT

Säähavainnot ja -ennusteet yli 4000 lentoasemalta (METAR- ja TAF-raportit).

Käytössä olevat sääasemat on merkitty karttaan keltaisilla ja punaisilla pisteillä.

Aseta hiiri pisteen päälle nähdäksesi sääaseman nimen.

Klikkaa sitten nähdäksesi säähavainnot ja -ennusteet.

Kartan vaihtaminen: klikkaa mustalla rastilla varustettuja vihreitä pisteitä, niin voit zoomata sisään; viivalla varustettua vihreää pistettä, niin voit zoomata ulos tai vihreitä nuolia, niin pääset viereisille kartoille.


METAR-TAF: